sensor_id;sensor_type;location;lat;lon;timestamp;P1;durP1;ratioP1;P2;durP2;ratioP2
10872;SDS011;34586;53.616;10.032;2022-11-21T00:00:17;16.20;;;13.97;;
10872;SDS011;34586;53.616;10.032;2022-11-21T00:02:43;17.23;;;14.70;;
10872;SDS011;34586;53.616;10.032;2022-11-21T00:05:09;18.33;;;14.33;;
10872;SDS011;34586;53.616;10.032;2022-11-21T00:07:35;18.13;;;13.83;;
10872;SDS011;34586;53.616;10.032;2022-11-21T00:10:01;19.70;;;15.03;;
10872;SDS011;34586;53.616;10.032;2022-11-21T00:12:27;17.97;;;14.43;;
10872;SDS011;34586;53.616;10.032;2022-11-21T00:14:53;18.23;;;15.00;;
10872;SDS011;34586;53.616;10.032;2022-11-21T00:17:19;18.37;;;13.63;;
10872;SDS011;34586;53.616;10.032;2022-11-21T00:19:44;18.40;;;14.33;;
10872;SDS011;34586;53.616;10.032;2022-11-21T00:22:10;17.47;;;13.27;;
10872;SDS011;34586;53.616;10.032;2022-11-21T00:24:36;18.70;;;14.70;;
10872;SDS011;34586;53.616;10.032;2022-11-21T00:27:01;19.63;;;14.87;;
10872;SDS011;34586;53.616;10.032;2022-11-21T00:29:27;16.60;;;13.53;;
10872;SDS011;34586;53.616;10.032;2022-11-21T00:31:53;17.57;;;13.77;;
10872;SDS011;34586;53.616;10.032;2022-11-21T00:34:19;16.23;;;12.53;;
10872;SDS011;34586;53.616;10.032;2022-11-21T00:36:44;17.63;;;13.20;;
10872;SDS011;34586;53.616;10.032;2022-11-21T00:39:11;17.10;;;13.60;;
10872;SDS011;34586;53.616;10.032;2022-11-21T00:41:37;16.00;;;13.33;;
10872;SDS011;34586;53.616;10.032;2022-11-21T00:44:03;18.63;;;14.33;;
10872;SDS011;34586;53.616;10.032;2022-11-21T00:46:30;16.77;;;13.60;;
10872;SDS011;34586;53.616;10.032;2022-11-21T00:48:57;15.60;;;13.50;;
10872;SDS011;34586;53.616;10.032;2022-11-21T00:51:23;15.87;;;13.37;;
10872;SDS011;34586;53.616;10.032;2022-11-21T00:53:50;16.70;;;13.67;;
10872;SDS011;34586;53.616;10.032;2022-11-21T00:56:16;19.13;;;14.53;;
10872;SDS011;34586;53.616;10.032;2022-11-21T00:58:42;18.10;;;13.93;;
10872;SDS011;34586;53.616;10.032;2022-11-21T01:01:08;19.73;;;13.80;;
10872;SDS011;34586;53.616;10.032;2022-11-21T01:03:35;17.53;;;13.80;;
10872;SDS011;34586;53.616;10.032;2022-11-21T01:06:02;17.40;;;13.23;;
10872;SDS011;34586;53.616;10.032;2022-11-21T01:08:33;18.53;;;13.47;;
10872;SDS011;34586;53.616;10.032;2022-11-21T01:11:03;16.53;;;13.80;;
10872;SDS011;34586;53.616;10.032;2022-11-21T01:13:30;18.23;;;13.87;;
10872;SDS011;34586;53.616;10.032;2022-11-21T01:16:01;16.60;;;14.50;;
10872;SDS011;34586;53.616;10.032;2022-11-21T01:18:32;19.03;;;14.60;;
10872;SDS011;34586;53.616;10.032;2022-11-21T01:20:59;18.73;;;14.23;;
10872;SDS011;34586;53.616;10.032;2022-11-21T01:23:26;18.63;;;14.13;;
10872;SDS011;34586;53.616;10.032;2022-11-21T01:25:52;18.97;;;14.37;;
10872;SDS011;34586;53.616;10.032;2022-11-21T01:28:18;15.90;;;13.43;;
10872;SDS011;34586;53.616;10.032;2022-11-21T01:30:43;17.83;;;14.20;;
10872;SDS011;34586;53.616;10.032;2022-11-21T01:33:09;17.00;;;14.13;;
10872;SDS011;34586;53.616;10.032;2022-11-21T01:35:34;17.77;;;13.63;;
10872;SDS011;34586;53.616;10.032;2022-11-21T01:38:00;17.03;;;13.57;;
10872;SDS011;34586;53.616;10.032;2022-11-21T01:40:26;19.93;;;13.97;;
10872;SDS011;34586;53.616;10.032;2022-11-21T01:42:55;16.03;;;13.80;;
10872;SDS011;34586;53.616;10.032;2022-11-21T01:48:23;18.80;;;13.50;;
10872;SDS011;34586;53.616;10.032;2022-11-21T01:51:02;17.13;;;13.10;;
10872;SDS011;34586;53.616;10.032;2022-11-21T01:53:47;14.83;;;11.83;;
10872;SDS011;34586;53.616;10.032;2022-11-21T01:56:27;15.97;;;12.90;;
10872;SDS011;34586;53.616;10.032;2022-11-21T01:58:57;16.37;;;12.43;;
10872;SDS011;34586;53.616;10.032;2022-11-21T02:01:26;14.43;;;12.33;;
10872;SDS011;34586;53.616;10.032;2022-11-21T02:03:52;14.63;;;12.37;;
10872;SDS011;34586;53.616;10.032;2022-11-21T02:06:20;15.60;;;12.50;;
10872;SDS011;34586;53.616;10.032;2022-11-21T02:08:48;15.93;;;11.83;;
10872;SDS011;34586;53.616;10.032;2022-11-21T02:11:22;15.03;;;11.73;;
10872;SDS011;34586;53.616;10.032;2022-11-21T02:13:58;15.50;;;12.23;;
10872;SDS011;34586;53.616;10.032;2022-11-21T02:16:24;15.07;;;11.57;;
10872;SDS011;34586;53.616;10.032;2022-11-21T02:18:52;15.17;;;11.93;;
10872;SDS011;34586;53.616;10.032;2022-11-21T02:21:24;15.80;;;11.70;;
10872;SDS011;34586;53.616;10.032;2022-11-21T02:24:00;13.90;;;12.30;;
10872;SDS011;34586;53.616;10.032;2022-11-21T02:26:30;15.50;;;13.03;;
10872;SDS011;34586;53.616;10.032;2022-11-21T02:28:57;15.30;;;12.10;;
10872;SDS011;34586;53.616;10.032;2022-11-21T02:31:23;16.03;;;12.93;;
10872;SDS011;34586;53.616;10.032;2022-11-21T02:33:49;15.87;;;11.80;;
10872;SDS011;34586;53.616;10.032;2022-11-21T02:39:02;16.70;;;12.10;;
10872;SDS011;34586;53.616;10.032;2022-11-21T02:41:30;16.93;;;12.53;;
10872;SDS011;34586;53.616;10.032;2022-11-21T02:44:10;14.93;;;12.33;;
10872;SDS011;34586;53.616;10.032;2022-11-21T02:46:50;15.27;;;12.33;;
10872;SDS011;34586;53.616;10.032;2022-11-21T02:49:18;16.43;;;12.30;;
10872;SDS011;34586;53.616;10.032;2022-11-21T02:51:51;16.33;;;12.20;;
10872;SDS011;34586;53.616;10.032;2022-11-21T02:54:17;14.13;;;11.27;;
10872;SDS011;34586;53.616;10.032;2022-11-21T02:56:43;15.27;;;11.87;;
10872;SDS011;34586;53.616;10.032;2022-11-21T02:59:08;14.13;;;12.40;;
10872;SDS011;34586;53.616;10.032;2022-11-21T03:01:34;13.20;;;11.30;;
10872;SDS011;34586;53.616;10.032;2022-11-21T03:04:01;14.20;;;11.80;;
10872;SDS011;34586;53.616;10.032;2022-11-21T03:06:26;13.17;;;11.00;;
10872;SDS011;34586;53.616;10.032;2022-11-21T03:08:52;18.57;;;13.00;;
10872;SDS011;34586;53.616;10.032;2022-11-21T03:11:18;16.90;;;13.23;;
10872;SDS011;34586;53.616;10.032;2022-11-21T03:13:43;17.70;;;12.63;;
10872;SDS011;34586;53.616;10.032;2022-11-21T03:16:09;17.37;;;12.87;;
10872;SDS011;34586;53.616;10.032;2022-11-21T03:18:36;16.07;;;12.60;;
10872;SDS011;34586;53.616;10.032;2022-11-21T03:21:01;17.97;;;12.97;;
10872;SDS011;34586;53.616;10.032;2022-11-21T03:23:28;15.73;;;12.40;;
10872;SDS011;34586;53.616;10.032;2022-11-21T03:25:54;14.67;;;11.57;;
10872;SDS011;34586;53.616;10.032;2022-11-21T03:28:19;16.97;;;12.70;;
10872;SDS011;34586;53.616;10.032;2022-11-21T03:30:45;16.13;;;12.07;;
10872;SDS011;34586;53.616;10.032;2022-11-21T03:33:12;15.43;;;12.13;;
10872;SDS011;34586;53.616;10.032;2022-11-21T03:35:37;15.97;;;11.73;;
10872;SDS011;34586;53.616;10.032;2022-11-21T03:38:04;15.67;;;11.50;;
10872;SDS011;34586;53.616;10.032;2022-11-21T03:40:30;14.23;;;11.57;;
10872;SDS011;34586;53.616;10.032;2022-11-21T03:42:55;14.97;;;11.10;;
10872;SDS011;34586;53.616;10.032;2022-11-21T03:45:21;12.53;;;10.83;;
10872;SDS011;34586;53.616;10.032;2022-11-21T03:47:47;12.50;;;10.57;;
10872;SDS011;34586;53.616;10.032;2022-11-21T03:50:14;12.17;;;10.00;;
10872;SDS011;34586;53.616;10.032;2022-11-21T03:52:42;12.37;;;9.83;;
10872;SDS011;34586;53.616;10.032;2022-11-21T03:55:08;11.90;;;10.17;;
10872;SDS011;34586;53.616;10.032;2022-11-21T03:57:35;14.03;;;10.30;;
10872;SDS011;34586;53.616;10.032;2022-11-21T04:00:00;14.00;;;11.03;;
10872;SDS011;34586;53.616;10.032;2022-11-21T04:02:27;13.53;;;10.93;;
10872;SDS011;34586;53.616;10.032;2022-11-21T04:04:52;13.20;;;10.97;;
10872;SDS011;34586;53.616;10.032;2022-11-21T04:07:18;12.70;;;10.23;;
10872;SDS011;34586;53.616;10.032;2022-11-21T04:09:44;11.37;;;9.97;;
10872;SDS011;34586;53.616;10.032;2022-11-21T04:12:09;12.47;;;10.20;;
10872;SDS011;34586;53.616;10.032;2022-11-21T04:14:35;12.30;;;9.87;;
10872;SDS011;34586;53.616;10.032;2022-11-21T04:17:00;12.33;;;10.20;;
10872;SDS011;34586;53.616;10.032;2022-11-21T04:19:27;12.37;;;10.40;;
10872;SDS011;34586;53.616;10.032;2022-11-21T04:21:54;13.17;;;10.47;;
10872;SDS011;34586;53.616;10.032;2022-11-21T04:24:20;12.77;;;10.47;;
10872;SDS011;34586;53.616;10.032;2022-11-21T04:26:46;15.27;;;10.90;;
10872;SDS011;34586;53.616;10.032;2022-11-21T04:29:12;16.67;;;12.70;;
10872;SDS011;34586;53.616;10.032;2022-11-21T04:31:38;13.43;;;10.63;;
10872;SDS011;34586;53.616;10.032;2022-11-21T04:34:03;12.20;;;9.97;;
10872;SDS011;34586;53.616;10.032;2022-11-21T04:36:29;13.47;;;10.43;;
10872;SDS011;34586;53.616;10.032;2022-11-21T04:38:55;13.00;;;10.20;;
10872;SDS011;34586;53.616;10.032;2022-11-21T04:41:21;14.27;;;10.90;;
10872;SDS011;34586;53.616;10.032;2022-11-21T04:43:46;13.30;;;9.93;;
10872;SDS011;34586;53.616;10.032;2022-11-21T04:46:12;11.97;;;9.87;;
10872;SDS011;34586;53.616;10.032;2022-11-21T04:48:39;13.00;;;10.67;;
10872;SDS011;34586;53.616;10.032;2022-11-21T04:51:04;15.10;;;11.27;;
10872;SDS011;34586;53.616;10.032;2022-11-21T04:53:30;14.90;;;10.93;;
10872;SDS011;34586;53.616;10.032;2022-11-21T04:55:56;17.33;;;12.47;;
10872;SDS011;34586;53.616;10.032;2022-11-21T04:58:21;15.57;;;11.73;;
10872;SDS011;34586;53.616;10.032;2022-11-21T05:00:47;15.67;;;12.47;;
10872;SDS011;34586;53.616;10.032;2022-11-21T05:03:12;15.87;;;12.40;;
10872;SDS011;34586;53.616;10.032;2022-11-21T05:05:38;15.53;;;11.83;;
10872;SDS011;34586;53.616;10.032;2022-11-21T05:08:04;16.70;;;13.20;;
10872;SDS011;34586;53.616;10.032;2022-11-21T05:10:29;16.30;;;12.63;;
10872;SDS011;34586;53.616;10.032;2022-11-21T05:12:56;17.47;;;12.83;;
10872;SDS011;34586;53.616;10.032;2022-11-21T05:15:43;15.43;;;12.87;;
10872;SDS011;34586;53.616;10.032;2022-11-21T05:18:09;15.97;;;12.23;;
10872;SDS011;34586;53.616;10.032;2022-11-21T05:20:35;17.33;;;11.43;;
10872;SDS011;34586;53.616;10.032;2022-11-21T05:23:01;15.90;;;12.20;;
10872;SDS011;34586;53.616;10.032;2022-11-21T05:25:27;16.17;;;12.37;;
10872;SDS011;34586;53.616;10.032;2022-11-21T05:27:55;16.60;;;12.97;;
10872;SDS011;34586;53.616;10.032;2022-11-21T05:30:21;16.90;;;12.20;;
10872;SDS011;34586;53.616;10.032;2022-11-21T05:32:47;16.33;;;12.37;;
10872;SDS011;34586;53.616;10.032;2022-11-21T05:35:12;16.67;;;12.43;;
10872;SDS011;34586;53.616;10.032;2022-11-21T05:37:38;15.70;;;11.87;;
10872;SDS011;34586;53.616;10.032;2022-11-21T05:40:04;16.13;;;12.23;;
10872;SDS011;34586;53.616;10.032;2022-11-21T05:42:30;16.23;;;12.57;;
10872;SDS011;34586;53.616;10.032;2022-11-21T05:45:14;16.27;;;13.10;;
10872;SDS011;34586;53.616;10.032;2022-11-21T05:47:40;16.47;;;13.03;;
10872;SDS011;34586;53.616;10.032;2022-11-21T05:50:06;17.97;;;12.80;;
10872;SDS011;34586;53.616;10.032;2022-11-21T05:52:32;18.13;;;13.83;;
10872;SDS011;34586;53.616;10.032;2022-11-21T05:54:58;15.80;;;13.00;;
10872;SDS011;34586;53.616;10.032;2022-11-21T05:57:24;18.00;;;13.70;;
10872;SDS011;34586;53.616;10.032;2022-11-21T05:59:49;19.13;;;14.23;;
10872;SDS011;34586;53.616;10.032;2022-11-21T06:02:15;17.53;;;13.23;;
10872;SDS011;34586;53.616;10.032;2022-11-21T06:04:59;17.23;;;13.73;;
10872;SDS011;34586;53.616;10.032;2022-11-21T06:07:25;18.03;;;13.33;;
10872;SDS011;34586;53.616;10.032;2022-11-21T06:09:51;19.13;;;15.20;;
10872;SDS011;34586;53.616;10.032;2022-11-21T06:12:16;19.50;;;14.70;;
10872;SDS011;34586;53.616;10.032;2022-11-21T06:14:42;17.73;;;14.33;;
10872;SDS011;34586;53.616;10.032;2022-11-21T06:17:07;18.20;;;14.03;;
10872;SDS011;34586;53.616;10.032;2022-11-21T06:19:33;18.43;;;14.30;;
10872;SDS011;34586;53.616;10.032;2022-11-21T06:22:00;19.43;;;14.63;;
10872;SDS011;34586;53.616;10.032;2022-11-21T06:24:25;20.53;;;14.73;;
10872;SDS011;34586;53.616;10.032;2022-11-21T06:26:51;19.20;;;14.20;;
10872;SDS011;34586;53.616;10.032;2022-11-21T06:29:16;18.37;;;14.10;;
10872;SDS011;34586;53.616;10.032;2022-11-21T06:31:46;19.37;;;14.80;;
10872;SDS011;34586;53.616;10.032;2022-11-21T06:34:11;17.93;;;13.70;;
10872;SDS011;34586;53.616;10.032;2022-11-21T06:36:37;20.50;;;14.53;;
10872;SDS011;34586;53.616;10.032;2022-11-21T06:39:03;19.50;;;14.47;;
10872;SDS011;34586;53.616;10.032;2022-11-21T06:41:29;18.30;;;14.03;;
10872;SDS011;34586;53.616;10.032;2022-11-21T06:43:57;24.73;;;15.20;;
10872;SDS011;34586;53.616;10.032;2022-11-21T06:46:24;19.73;;;14.63;;
10872;SDS011;34586;53.616;10.032;2022-11-21T06:48:50;23.27;;;15.90;;
10872;SDS011;34586;53.616;10.032;2022-11-21T06:51:21;19.73;;;15.27;;
10872;SDS011;34586;53.616;10.032;2022-11-21T06:53:52;19.97;;;14.93;;
10872;SDS011;34586;53.616;10.032;2022-11-21T06:56:23;22.97;;;15.20;;
10872;SDS011;34586;53.616;10.032;2022-11-21T06:58:51;17.47;;;14.10;;
10872;SDS011;34586;53.616;10.032;2022-11-21T07:01:17;21.07;;;15.50;;
10872;SDS011;34586;53.616;10.032;2022-11-21T07:03:43;18.07;;;14.20;;
10872;SDS011;34586;53.616;10.032;2022-11-21T07:06:09;19.83;;;15.63;;
10872;SDS011;34586;53.616;10.032;2022-11-21T07:08:35;19.87;;;15.20;;
10872;SDS011;34586;53.616;10.032;2022-11-21T07:11:05;22.80;;;15.70;;
10872;SDS011;34586;53.616;10.032;2022-11-21T07:13:32;20.37;;;15.50;;
10872;SDS011;34586;53.616;10.032;2022-11-21T07:16:02;17.50;;;14.60;;
10872;SDS011;34586;53.616;10.032;2022-11-21T07:18:32;20.80;;;15.90;;
10872;SDS011;34586;53.616;10.032;2022-11-21T07:20:59;21.77;;;15.80;;
10872;SDS011;34586;53.616;10.032;2022-11-21T07:23:25;18.57;;;15.33;;
10872;SDS011;34586;53.616;10.032;2022-11-21T07:25:51;21.87;;;15.50;;
10872;SDS011;34586;53.616;10.032;2022-11-21T07:28:17;21.00;;;16.20;;
10872;SDS011;34586;53.616;10.032;2022-11-21T07:30:42;21.93;;;15.87;;
10872;SDS011;34586;53.616;10.032;2022-11-21T07:33:08;23.33;;;16.23;;
10872;SDS011;34586;53.616;10.032;2022-11-21T07:35:34;26.77;;;17.67;;
10872;SDS011;34586;53.616;10.032;2022-11-21T07:38:00;25.20;;;17.07;;
10872;SDS011;34586;53.616;10.032;2022-11-21T07:40:26;24.60;;;17.93;;
10872;SDS011;34586;53.616;10.032;2022-11-21T07:42:52;27.03;;;18.10;;
10872;SDS011;34586;53.616;10.032;2022-11-21T07:45:18;26.27;;;18.53;;
10872;SDS011;34586;53.616;10.032;2022-11-21T07:47:44;25.63;;;17.90;;
10872;SDS011;34586;53.616;10.032;2022-11-21T07:50:11;24.67;;;16.80;;
10872;SDS011;34586;53.616;10.032;2022-11-21T07:52:37;24.37;;;16.87;;
10872;SDS011;34586;53.616;10.032;2022-11-21T07:55:03;28.20;;;18.37;;
10872;SDS011;34586;53.616;10.032;2022-11-21T07:57:30;23.60;;;16.87;;
10872;SDS011;34586;53.616;10.032;2022-11-21T07:59:56;26.67;;;17.83;;
10872;SDS011;34586;53.616;10.032;2022-11-21T08:02:25;24.67;;;18.00;;
10872;SDS011;34586;53.616;10.032;2022-11-21T08:04:52;23.33;;;16.27;;
10872;SDS011;34586;53.616;10.032;2022-11-21T08:07:18;24.70;;;17.53;;
10872;SDS011;34586;53.616;10.032;2022-11-21T08:09:45;26.80;;;18.00;;
10872;SDS011;34586;53.616;10.032;2022-11-21T08:12:11;33.10;;;21.50;;
10872;SDS011;34586;53.616;10.032;2022-11-21T08:14:37;31.43;;;20.87;;
10872;SDS011;34586;53.616;10.032;2022-11-21T08:17:03;35.17;;;23.27;;
10872;SDS011;34586;53.616;10.032;2022-11-21T08:19:29;34.13;;;21.93;;
10872;SDS011;34586;53.616;10.032;2022-11-21T08:21:55;34.73;;;23.30;;
10872;SDS011;34586;53.616;10.032;2022-11-21T08:24:21;38.70;;;23.30;;
10872;SDS011;34586;53.616;10.032;2022-11-21T08:26:47;33.20;;;22.30;;
10872;SDS011;34586;53.616;10.032;2022-11-21T08:29:13;34.53;;;23.40;;
10872;SDS011;34586;53.616;10.032;2022-11-21T08:31:39;33.57;;;23.07;;
10872;SDS011;34586;53.616;10.032;2022-11-21T08:34:05;33.37;;;22.47;;
10872;SDS011;34586;53.616;10.032;2022-11-21T08:36:31;28.70;;;20.27;;
10872;SDS011;34586;53.616;10.032;2022-11-21T08:38:57;28.67;;;20.07;;
10872;SDS011;34586;53.616;10.032;2022-11-21T08:41:24;26.07;;;19.23;;
10872;SDS011;34586;53.616;10.032;2022-11-21T08:44:08;23.30;;;17.80;;
10872;SDS011;34586;53.616;10.032;2022-11-21T08:46:34;23.03;;;17.17;;
10872;SDS011;34586;53.616;10.032;2022-11-21T08:49:04;21.30;;;17.10;;
10872;SDS011;34586;53.616;10.032;2022-11-21T08:51:30;24.80;;;15.93;;
10872;SDS011;34586;53.616;10.032;2022-11-21T08:53:56;22.63;;;16.20;;
10872;SDS011;34586;53.616;10.032;2022-11-21T08:56:22;20.30;;;15.47;;
10872;SDS011;34586;53.616;10.032;2022-11-21T08:58:48;19.07;;;15.33;;
10872;SDS011;34586;53.616;10.032;2022-11-21T09:01:13;18.60;;;14.83;;
10872;SDS011;34586;53.616;10.032;2022-11-21T09:03:40;16.63;;;14.23;;
10872;SDS011;34586;53.616;10.032;2022-11-21T09:06:06;18.70;;;14.47;;
10872;SDS011;34586;53.616;10.032;2022-11-21T09:08:32;18.60;;;14.33;;
10872;SDS011;34586;53.616;10.032;2022-11-21T09:11:01;19.30;;;14.90;;
10872;SDS011;34586;53.616;10.032;2022-11-21T09:13:32;20.20;;;17.53;;
10872;SDS011;34586;53.616;10.032;2022-11-21T09:15:58;17.90;;;14.47;;
10872;SDS011;34586;53.616;10.032;2022-11-21T09:18:43;18.57;;;13.87;;
10872;SDS011;34586;53.616;10.032;2022-11-21T09:21:13;21.47;;;13.93;;
10872;SDS011;34586;53.616;10.032;2022-11-21T09:23:39;18.07;;;14.03;;
10872;SDS011;34586;53.616;10.032;2022-11-21T09:26:05;18.43;;;14.23;;
10872;SDS011;34586;53.616;10.032;2022-11-21T09:28:31;17.20;;;14.23;;
10872;SDS011;34586;53.616;10.032;2022-11-21T09:30:56;16.03;;;13.90;;
10872;SDS011;34586;53.616;10.032;2022-11-21T09:33:22;18.53;;;13.97;;
10872;SDS011;34586;53.616;10.032;2022-11-21T09:35:47;16.40;;;13.83;;
10872;SDS011;34586;53.616;10.032;2022-11-21T09:38:15;15.17;;;13.00;;
10872;SDS011;34586;53.616;10.032;2022-11-21T09:40:42;16.50;;;13.30;;
10872;SDS011;34586;53.616;10.032;2022-11-21T09:48:53;15.87;;;12.83;;
10872;SDS011;34586;53.616;10.032;2022-11-21T09:51:26;15.73;;;12.70;;
10872;SDS011;34586;53.616;10.032;2022-11-21T09:56:52;17.10;;;13.23;;
10872;SDS011;34586;53.616;10.032;2022-11-21T09:59:34;13.93;;;12.10;;
10872;SDS011;34586;53.616;10.032;2022-11-21T10:02:08;13.87;;;12.33;;
10872;SDS011;34586;53.616;10.032;2022-11-21T10:04:44;14.23;;;11.80;;
10872;SDS011;34586;53.616;10.032;2022-11-21T10:07:16;14.77;;;11.90;;
10872;SDS011;34586;53.616;10.032;2022-11-21T10:23:49;13.37;;;11.27;;
10872;SDS011;34586;53.616;10.032;2022-11-21T10:29:21;12.60;;;10.37;;
10872;SDS011;34586;53.616;10.032;2022-11-21T10:31:58;12.73;;;11.40;;
10872;SDS011;34586;53.616;10.032;2022-11-21T10:34:33;12.17;;;9.90;;
10872;SDS011;34586;53.616;10.032;2022-11-21T10:37:10;12.20;;;9.57;;
10872;SDS011;34586;53.616;10.032;2022-11-21T10:40:07;12.07;;;9.93;;
10872;SDS011;34586;53.616;10.032;2022-11-21T10:42:54;11.43;;;10.07;;
10872;SDS011;34586;53.616;10.032;2022-11-21T10:46:00;14.03;;;10.03;;
10872;SDS011;34586;53.616;10.032;2022-11-21T10:48:25;10.20;;;8.70;;
10872;SDS011;34586;53.616;10.032;2022-11-21T10:51:04;11.43;;;9.97;;
10872;SDS011;34586;53.616;10.032;2022-11-21T10:53:38;13.87;;;10.50;;
10872;SDS011;34586;53.616;10.032;2022-11-21T10:56:23;12.00;;;10.13;;
10872;SDS011;34586;53.616;10.032;2022-11-21T10:58:55;11.43;;;9.50;;
10872;SDS011;34586;53.616;10.032;2022-11-21T11:01:30;11.13;;;9.50;;
10872;SDS011;34586;53.616;10.032;2022-11-21T11:06:36;11.03;;;9.83;;
10872;SDS011;34586;53.616;10.032;2022-11-21T11:09:03;9.70;;;8.70;;
10872;SDS011;34586;53.616;10.032;2022-11-21T11:11:29;9.83;;;8.83;;
10872;SDS011;34586;53.616;10.032;2022-11-21T11:16:36;9.20;;;8.20;;
10872;SDS011;34586;53.616;10.032;2022-11-21T11:26:34;8.97;;;7.97;;
10872;SDS011;34586;53.616;10.032;2022-11-21T11:29:19;8.70;;;7.63;;
10872;SDS011;34586;53.616;10.032;2022-11-21T11:34:38;8.83;;;7.40;;
10872;SDS011;34586;53.616;10.032;2022-11-21T11:37:13;8.70;;;7.07;;
10872;SDS011;34586;53.616;10.032;2022-11-21T11:52:17;9.20;;;7.13;;
10872;SDS011;34586;53.616;10.032;2022-11-21T11:54:49;7.30;;;6.33;;
10872;SDS011;34586;53.616;10.032;2022-11-21T11:57:22;8.47;;;6.83;;
10872;SDS011;34586;53.616;10.032;2022-11-21T11:59:49;8.77;;;6.90;;
10872;SDS011;34586;53.616;10.032;2022-11-21T12:02:58;10.47;;;6.83;;
10872;SDS011;34586;53.616;10.032;2022-11-21T12:05:25;7.47;;;5.80;;
10872;SDS011;34586;53.616;10.032;2022-11-21T12:10:59;8.70;;;5.73;;
10872;SDS011;34586;53.616;10.032;2022-11-21T12:13:48;6.83;;;5.67;;
10872;SDS011;34586;53.616;10.032;2022-11-21T12:16:17;7.33;;;6.13;;
10872;SDS011;34586;53.616;10.032;2022-11-21T12:18:46;6.80;;;6.10;;
10872;SDS011;34586;53.616;10.032;2022-11-21T12:21:33;5.70;;;5.10;;
10872;SDS011;34586;53.616;10.032;2022-11-21T12:24:01;6.47;;;5.37;;
10872;SDS011;34586;53.616;10.032;2022-11-21T12:29:37;5.80;;;4.50;;
10872;SDS011;34586;53.616;10.032;2022-11-21T12:41:10;5.13;;;4.07;;
10872;SDS011;34586;53.616;10.032;2022-11-21T12:49:48;4.00;;;3.30;;
10872;SDS011;34586;53.616;10.032;2022-11-21T12:53:10;3.80;;;3.50;;
10872;SDS011;34586;53.616;10.032;2022-11-21T12:56:16;4.03;;;3.43;;
10872;SDS011;34586;53.616;10.032;2022-11-21T12:58:48;3.80;;;3.20;;
10872;SDS011;34586;53.616;10.032;2022-11-21T13:04:03;3.53;;;3.23;;
10872;SDS011;34586;53.616;10.032;2022-11-21T13:06:37;3.47;;;3.13;;
10872;SDS011;34586;53.616;10.032;2022-11-21T13:09:12;3.60;;;3.30;;
10872;SDS011;34586;53.616;10.032;2022-11-21T13:20:19;4.00;;;3.20;;
10872;SDS011;34586;53.616;10.032;2022-11-21T13:22:54;3.60;;;2.47;;
10872;SDS011;34586;53.616;10.032;2022-11-21T13:28:29;2.70;;;2.17;;
10872;SDS011;34586;53.616;10.032;2022-11-21T13:30:56;3.60;;;2.87;;
10872;SDS011;34586;53.616;10.032;2022-11-21T13:36:11;7.40;;;5.00;;
10872;SDS011;34586;53.616;10.032;2022-11-21T13:46:58;9.37;;;6.80;;
10872;SDS011;34586;53.616;10.032;2022-11-21T13:57:41;8.10;;;6.60;;
10872;SDS011;34586;53.616;10.032;2022-11-21T14:08:25;12.23;;;7.47;;
10872;SDS011;34586;53.616;10.032;2022-11-21T14:10:53;9.50;;;7.53;;
10872;SDS011;34586;53.616;10.032;2022-11-21T14:18:43;11.80;;;7.63;;
10872;SDS011;34586;53.616;10.032;2022-11-21T14:21:20;10.87;;;8.20;;
10872;SDS011;34586;53.616;10.032;2022-11-21T14:23:53;10.57;;;7.93;;
10872;SDS011;34586;53.616;10.032;2022-11-21T14:26:22;11.30;;;7.77;;
10872;SDS011;34586;53.616;10.032;2022-11-21T14:28:50;10.53;;;7.70;;
10872;SDS011;34586;53.616;10.032;2022-11-21T14:31:16;12.10;;;7.70;;
10872;SDS011;34586;53.616;10.032;2022-11-21T14:33:42;9.93;;;7.80;;
10872;SDS011;34586;53.616;10.032;2022-11-21T14:38:51;11.07;;;8.30;;
10872;SDS011;34586;53.616;10.032;2022-11-21T14:41:26;13.37;;;8.23;;
10872;SDS011;34586;53.616;10.032;2022-11-21T14:46:25;10.03;;;7.77;;
10872;SDS011;34586;53.616;10.032;2022-11-21T14:48:51;9.00;;;7.40;;
10872;SDS011;34586;53.616;10.032;2022-11-21T14:51:20;9.80;;;7.90;;
10872;SDS011;34586;53.616;10.032;2022-11-21T14:53:48;8.33;;;7.13;;
10872;SDS011;34586;53.616;10.032;2022-11-21T14:56:23;8.50;;;7.47;;
10872;SDS011;34586;53.616;10.032;2022-11-21T14:58:51;9.80;;;7.23;;
10872;SDS011;34586;53.616;10.032;2022-11-21T15:01:18;9.27;;;7.90;;
10872;SDS011;34586;53.616;10.032;2022-11-21T15:03:59;9.23;;;7.63;;
10872;SDS011;34586;53.616;10.032;2022-11-21T15:06:27;10.37;;;8.00;;
10872;SDS011;34586;53.616;10.032;2022-11-21T15:08:58;9.07;;;7.50;;
10872;SDS011;34586;53.616;10.032;2022-11-21T15:11:36;8.77;;;7.50;;
10872;SDS011;34586;53.616;10.032;2022-11-21T15:14:10;13.03;;;8.00;;
10872;SDS011;34586;53.616;10.032;2022-11-21T15:16:40;8.77;;;7.37;;
10872;SDS011;34586;53.616;10.032;2022-11-21T15:19:09;7.97;;;6.80;;
10872;SDS011;34586;53.616;10.032;2022-11-21T15:21:35;9.77;;;7.20;;
10872;SDS011;34586;53.616;10.032;2022-11-21T15:26:53;12.13;;;8.43;;
10872;SDS011;34586;53.616;10.032;2022-11-21T15:29:19;12.47;;;9.37;;
10872;SDS011;34586;53.616;10.032;2022-11-21T15:32:04;10.50;;;8.17;;
10872;SDS011;34586;53.616;10.032;2022-11-21T15:34:33;12.17;;;8.20;;
10872;SDS011;34586;53.616;10.032;2022-11-21T15:37:00;11.77;;;8.07;;
10872;SDS011;34586;53.616;10.032;2022-11-21T15:39:27;9.90;;;7.33;;
10872;SDS011;34586;53.616;10.032;2022-11-21T15:41:53;10.17;;;8.17;;
10872;SDS011;34586;53.616;10.032;2022-11-21T15:44:20;11.40;;;7.90;;
10872;SDS011;34586;53.616;10.032;2022-11-21T15:46:49;11.20;;;7.67;;
10872;SDS011;34586;53.616;10.032;2022-11-21T15:49:15;9.93;;;8.10;;
10872;SDS011;34586;53.616;10.032;2022-11-21T15:51:42;12.60;;;8.40;;
10872;SDS011;34586;53.616;10.032;2022-11-21T15:54:11;10.53;;;8.10;;
10872;SDS011;34586;53.616;10.032;2022-11-21T15:56:40;12.60;;;8.83;;
10872;SDS011;34586;53.616;10.032;2022-11-21T15:59:06;16.93;;;10.63;;
10872;SDS011;34586;53.616;10.032;2022-11-21T16:01:32;12.73;;;9.23;;
10872;SDS011;34586;53.616;10.032;2022-11-21T16:04:00;12.43;;;9.40;;
10872;SDS011;34586;53.616;10.032;2022-11-21T16:06:28;11.10;;;9.00;;
10872;SDS011;34586;53.616;10.032;2022-11-21T16:08:59;13.53;;;9.87;;
10872;SDS011;34586;53.616;10.032;2022-11-21T16:11:32;12.63;;;9.57;;
10872;SDS011;34586;53.616;10.032;2022-11-21T16:14:07;16.07;;;10.50;;
10872;SDS011;34586;53.616;10.032;2022-11-21T16:16:38;15.07;;;10.17;;
10872;SDS011;34586;53.616;10.032;2022-11-21T16:19:04;11.47;;;9.10;;
10872;SDS011;34586;53.616;10.032;2022-11-21T16:21:30;10.63;;;8.77;;
10872;SDS011;34586;53.616;10.032;2022-11-21T16:23:56;9.90;;;8.17;;
10872;SDS011;34586;53.616;10.032;2022-11-21T16:26:22;10.77;;;8.77;;
10872;SDS011;34586;53.616;10.032;2022-11-21T16:28:55;9.83;;;8.20;;
10872;SDS011;34586;53.616;10.032;2022-11-21T16:31:25;11.90;;;8.47;;
10872;SDS011;34586;53.616;10.032;2022-11-21T16:33:52;10.23;;;8.40;;
10872;SDS011;34586;53.616;10.032;2022-11-21T16:36:19;11.83;;;8.20;;
10872;SDS011;34586;53.616;10.032;2022-11-21T16:38:46;11.40;;;9.20;;